Time;durP1;ratioP1;P1;durP2;ratioP2;P2;SDS_P1;SDS_P2;PMS_P1;PMS_P2;Temp;Humidity;BMP_temperature;BMP_pressure;BME280_temperature;BME280_humidity;BME280_pressure;Samples;Min_cycle;Max_cycle;Signal;HPM_P1;HPM_P2
2022/09/30 00:00:48;;;;;;;7.32;4.13;;;;;;;;;;5073009;28;20052;-67
2022/09/30 00:03:14;;;;;;;7.68;4.13;;;;;;;;;;5073599;28;20156;-67
2022/09/30 00:05:40;;;;;;;8.55;3.65;;;;;;;;;;5069228;28;20282;-67
2022/09/30 00:08:06;;;;;;;8.10;4.55;;;;;;;;;;5073626;28;20550;-67
2022/09/30 00:10:32;;;;;;;7.25;3.97;;;;;;;;;;5070585;28;20084;-67
2022/09/30 00:12:58;;;;;;;6.15;3.88;;;;;;;;;;5071859;28;20040;-67
2022/09/30 00:15:24;;;;;;;5.60;4.25;;;;;;;;;;5052225;28;20068;-67
2022/09/30 00:17:50;;;;;;;7.40;4.20;;;;;;;;;;5071961;28;20048;-67
2022/09/30 00:20:18;;;;;;;5.47;3.70;;;;;;;;;;5070336;28;20091;-67
2022/09/30 00:22:44;;;;;;;8.23;4.57;;;;;;;;;;5069649;28;20056;-67
2022/09/30 00:25:10;;;;;;;9.45;4.65;;;;;;;;;;5070742;28;20926;-67
2022/09/30 00:27:37;;;;;;;6.95;4.38;;;;;;;;;;5064006;28;20053;-67
2022/09/30 00:30:04;;;;;;;7.10;3.80;;;;;;;;;;5072887;28;20522;-67
2022/09/30 00:32:30;;;;;;;7.68;4.07;;;;;;;;;;5070040;28;20174;-67
2022/09/30 00:34:56;;;;;;;8.13;4.47;;;;;;;;;;5072133;28;20050;-67
2022/09/30 00:37:22;;;;;;;8.02;5.13;;;;;;;;;;5055226;28;20037;-67
2022/09/30 00:39:48;;;;;;;5.88;4.25;;;;;;;;;;5070016;28;20049;-67
2022/09/30 00:42:15;;;;;;;8.02;4.40;;;;;;;;;;5069561;28;20079;-67
2022/09/30 00:44:44;;;;;;;11.98;4.25;;;;;;;;;;5070721;28;20044;-67
2022/09/30 00:47:20;;;;;;;6.75;4.18;;;;;;;;;;5066591;28;20036;-67
2022/09/30 00:49:46;;;;;;;8.55;4.10;;;;;;;;;;5062444;28;20615;-66
2022/09/30 00:52:12;;;;;;;8.30;5.05;;;;;;;;;;5071993;28;20044;-67
2022/09/30 00:54:38;;;;;;;9.93;4.00;;;;;;;;;;5062177;28;20048;-67
2022/09/30 00:57:07;;;;;;;9.13;4.75;;;;;;;;;;5065460;28;20036;-67
2022/09/30 00:59:44;;;;;;;4.82;3.90;;;;;;;;;;5068103;28;20156;-67
2022/09/30 01:02:11;;;;;;;6.47;4.45;;;;;;;;;;5069242;28;20119;-67
2022/09/30 01:04:38;;;;;;;7.15;4.32;;;;;;;;;;5048362;28;20132;-67
2022/09/30 01:07:05;;;;;;;7.40;4.72;;;;;;;;;;5070370;28;20118;-67
2022/09/30 01:09:32;;;;;;;6.55;4.75;;;;;;;;;;5068942;28;20124;-67
2022/09/30 01:11:58;;;;;;;5.72;3.83;;;;;;;;;;5069490;28;20910;-67
2022/09/30 01:14:26;;;;;;;13.02;4.90;;;;;;;;;;5070537;28;20040;-68
2022/09/30 01:17:02;;;;;;;7.35;4.78;;;;;;;;;;5070412;28;20036;-67
2022/09/30 01:19:46;;;;;;;10.98;5.43;;;;;;;;;;5064263;28;20087;-67
2022/09/30 01:22:31;;;;;;;7.15;4.82;;;;;;;;;;5066812;28;20043;-67
2022/09/30 01:25:03;;;;;;;11.38;4.25;;;;;;;;;;5070708;28;20525;-68
2022/09/30 01:27:29;;;;;;;;;;;;;;;;;;5070949;28;20036;-67
2022/09/30 01:30:04;;;;;;;5.80;4.38;;;;;;;;;;5072515;28;20006;-67
2022/09/30 01:32:49;;;;;;;7.75;4.70;;;;;;;;;;5073200;28;20044;-67
2022/09/30 01:35:21;;;;;;;6.40;4.43;;;;;;;;;;5069755;28;20042;-67
2022/09/30 01:37:47;;;;;;;;;;;;;;;;;;5071948;28;20048;-68
2022/09/30 01:40:22;;;;;;;6.00;3.88;;;;;;;;;;5066583;28;21011;-67
2022/09/30 01:42:58;;;;;;;6.88;4.18;;;;;;;;;;5070414;28;20519;-67
2022/09/30 01:45:31;;;;;;;7.18;4.60;;;;;;;;;;5069985;28;20086;-67
2022/09/30 01:48:00;;;;;;;7.57;5.05;;;;;;;;;;5070810;28;20040;-67
2022/09/30 01:50:42;;;;;;;6.60;4.43;;;;;;;;;;5067329;28;20037;-67
2022/09/30 01:53:12;;;;;;;5.95;4.10;;;;;;;;;;5068134;28;20047;-67
2022/09/30 01:55:50;;;;;;;7.35;5.25;;;;;;;;;;5069073;28;20041;-67
2022/09/30 01:58:21;;;;;;;9.77;4.53;;;;;;;;;;5062329;28;20050;-67
2022/09/30 02:00:48;;;;;;;6.22;4.82;;;;;;;;;;5070737;28;20048;-67
2022/09/30 02:03:17;;;;;;;8.10;4.70;;;;;;;;;;5067849;28;20033;-68
2022/09/30 02:06:01;;;;;;;9.05;4.80;;;;;;;;;;5072557;28;20112;-67
2022/09/30 02:08:30;;;;;;;5.57;4.55;;;;;;;;;;5071864;28;20040;-67
2022/09/30 02:11:05;;;;;;;7.05;4.43;;;;;;;;;;5087677;28;20641;-67
2022/09/30 02:13:52;;;;;;;7.53;5.22;;;;;;;;;;5073276;28;20037;-67
2022/09/30 02:16:22;;;;;;;8.50;5.43;;;;;;;;;;5048584;28;20053;-67
2022/09/30 02:18:51;;;;;;;6.55;4.35;;;;;;;;;;5073588;28;20159;-67
2022/09/30 02:21:20;;;;;;;13.75;5.55;;;;;;;;;;5074781;28;20499;-68
2022/09/30 02:23:47;;;;;;;7.22;5.22;;;;;;;;;;5069894;28;20107;-67
2022/09/30 02:26:39;;;;;;;8.38;4.65;;;;;;;;;;5060061;28;20118;-68
2022/09/30 02:29:12;;;;;;;9.88;5.53;;;;;;;;;;5050489;28;20126;-68
2022/09/30 02:31:40;;;;;;;9.10;5.43;;;;;;;;;;5070384;28;20079;-68
2022/09/30 02:34:33;;;;;;;8.25;5.30;;;;;;;;;;5072146;28;20612;-67
2022/09/30 02:37:03;;;;;;;9.40;5.45;;;;;;;;;;5072141;28;20044;-68
2022/09/30 02:39:36;;;;;;;8.63;4.75;;;;;;;;;;5069603;28;20048;-68
2022/09/30 02:42:07;;;;;;;7.93;5.05;;;;;;;;;;5073462;28;20067;-68
2022/09/30 02:44:34;;;;;;;7.30;5.07;;;;;;;;;;5071085;28;20559;-67
2022/09/30 02:47:27;;;;;;;7.05;4.90;;;;;;;;;;5071852;28;20041;-68
2022/09/30 02:50:11;;;;;;;8.82;5.30;;;;;;;;;;5017878;28;20106;-67
2022/09/30 02:52:44;;;;;;;7.82;5.28;;;;;;;;;;5073572;28;20024;-67
2022/09/30 02:55:17;;;;;;;8.10;4.90;;;;;;;;;;5074679;28;20048;-67
2022/09/30 02:57:46;;;;;;;7.82;4.88;;;;;;;;;;5071420;28;20222;-67
2022/09/30 03:00:13;;;;;;;8.57;5.57;;;;;;;;;;5073606;28;20365;-67
2022/09/30 03:02:39;;;;;;;8.05;4.90;;;;;;;;;;5074663;28;20055;-67
2022/09/30 03:05:06;;;;;;;8.50;5.72;;;;;;;;;;5071081;28;20045;-67
2022/09/30 03:07:33;;;;;;;6.30;4.03;;;;;;;;;;5072995;28;20106;-67
2022/09/30 03:09:59;;;;;;;10.40;5.53;;;;;;;;;;5063202;28;20044;-67
2022/09/30 03:12:31;;;;;;;8.80;5.90;;;;;;;;;;5072597;28;20094;-67
2022/09/30 03:14:57;;;;;;;;;;;;;;;;;;5072430;28;20666;-67
2022/09/30 03:17:23;;;;;;;10.90;5.25;;;;;;;;;;5075008;28;19927;-67
2022/09/30 03:20:13;;;;;;;8.98;4.70;;;;;;;;;;5073030;28;20118;-69
2022/09/30 03:22:58;;;;;;;7.97;4.85;;;;;;;;;;5071158;28;20071;-68
2022/09/30 03:25:24;;;;;;;7.13;4.88;;;;;;;;;;5048795;28;20048;-67
2022/09/30 03:27:59;;;;;;;6.60;4.32;;;;;;;;;;5072221;28;20068;-67
2022/09/30 03:30:28;;;;;;;7.30;4.85;;;;;;;;;;5086508;28;20044;-67
2022/09/30 03:33:02;;;;;;;7.50;4.25;;;;;;;;;;5064632;28;20051;-67
2022/09/30 03:35:31;;;;;;;8.00;5.32;;;;;;;;;;5069017;28;21064;-67
2022/09/30 03:38:10;;;;;;;6.63;4.85;;;;;;;;;;5073301;28;20080;-67
2022/09/30 03:41:14;;;;;;;7.68;4.88;;;;;;;;;;5070315;28;20037;-67
2022/09/30 03:43:44;;;;;;;9.70;5.65;;;;;;;;;;4975156;28;20082;-67
2022/09/30 03:46:10;;;;;;;8.07;4.80;;;;;;;;;;4973573;28;20121;-67
2022/09/30 03:48:37;;;;;;;8.77;6.18;;;;;;;;;;5022109;28;20502;-68
2022/09/30 03:51:04;;;;;;;12.27;5.45;;;;;;;;;;5072730;28;20685;-67
2022/09/30 03:53:31;;;;;;;9.38;5.60;;;;;;;;;;5067847;28;20051;-67
2022/09/30 03:55:57;;;;;;;16.17;8.63;;;;;;;;;;5072394;28;20048;-68
2022/09/30 03:58:23;;;;;;;6.80;4.68;;;;;;;;;;5069207;28;20131;-67
2022/09/30 04:00:51;;;;;;;11.27;5.88;;;;;;;;;;5074225;28;20518;-67
2022/09/30 04:03:18;;;;;;;8.50;5.18;;;;;;;;;;5071343;28;20206;-67
2022/09/30 04:05:44;;;;;;;8.02;5.43;;;;;;;;;;5070606;28;20045;-67
2022/09/30 04:08:11;;;;;;;9.15;5.68;;;;;;;;;;5070876;28;20040;-67
2022/09/30 04:10:39;;;;;;;9.32;5.35;;;;;;;;;;5070253;28;20037;-67
2022/09/30 04:13:05;;;;;;;10.77;5.22;;;;;;;;;;5069566;28;20094;-67
2022/09/30 04:15:31;;;;;;;13.40;5.22;;;;;;;;;;5071706;28;20041;-68
2022/09/30 04:17:58;;;;;;;9.30;5.03;;;;;;;;;;5072075;28;20056;-67
2022/09/30 04:20:24;;;;;;;8.95;5.05;;;;;;;;;;5072399;28;20108;-67
2022/09/30 04:22:50;;;;;;;7.90;6.07;;;;;;;;;;5070727;28;20133;-67
2022/09/30 04:25:16;;;;;;;14.70;5.97;;;;;;;;;;5071133;28;20043;-67
2022/09/30 04:27:42;;;;;;;7.30;5.00;;;;;;;;;;5068504;28;20044;-68
2022/09/30 04:30:09;;;;;;;8.15;5.65;;;;;;;;;;5071300;28;20047;-68
2022/09/30 04:32:35;;;;;;;9.45;5.18;;;;;;;;;;5068565;28;20045;-67
2022/09/30 04:35:01;;;;;;;6.20;4.15;;;;;;;;;;5064895;28;20040;-68
2022/09/30 04:37:27;;;;;;;6.82;4.45;;;;;;;;;;5071184;28;20048;-68
2022/09/30 04:39:53;;;;;;;7.15;5.00;;;;;;;;;;5071784;28;20040;-67
2022/09/30 04:42:19;;;;;;;10.10;4.88;;;;;;;;;;5069777;28;20055;-68
2022/09/30 04:44:46;;;;;;;9.13;5.47;;;;;;;;;;5070315;28;20082;-67
2022/09/30 04:47:13;;;;;;;8.73;6.00;;;;;;;;;;5069936;28;20596;-68
2022/09/30 04:49:39;;;;;;;8.30;5.10;;;;;;;;;;5072414;28;20099;-67
2022/09/30 04:52:06;;;;;;;10.88;6.03;;;;;;;;;;5070810;28;20036;-68
2022/09/30 04:54:32;;;;;;;10.48;5.70;;;;;;;;;;5069564;28;20122;-67
2022/09/30 04:56:58;;;;;;;17.17;6.55;;;;;;;;;;5073352;28;20045;-67
2022/09/30 04:59:24;;;;;;;9.32;5.75;;;;;;;;;;5064018;28;20041;-68
2022/09/30 05:01:50;;;;;;;10.20;6.03;;;;;;;;;;5072091;28;20047;-67
2022/09/30 05:04:16;;;;;;;11.77;6.55;;;;;;;;;;5067162;28;20166;-68
2022/09/30 05:06:42;;;;;;;11.40;6.55;;;;;;;;;;5071768;28;20044;-67
2022/09/30 05:09:08;;;;;;;9.65;5.70;;;;;;;;;;5067092;28;20749;-67
2022/09/30 05:11:36;;;;;;;8.85;5.40;;;;;;;;;;5067960;28;20041;-68
2022/09/30 05:14:07;;;;;;;11.30;6.80;;;;;;;;;;5065071;28;20045;-68
2022/09/30 05:16:36;;;;;;;10.88;5.93;;;;;;;;;;5078481;28;20049;-75
2022/09/30 05:19:02;;;;;;;10.15;6.03;;;;;;;;;;5071116;28;20052;-67
2022/09/30 05:21:29;;;;;;;12.27;6.82;;;;;;;;;;5066544;28;20040;-67
2022/09/30 05:23:55;;;;;;;7.45;5.80;;;;;;;;;;5070052;28;20107;-67
2022/09/30 05:26:21;;;;;;;13.40;7.15;;;;;;;;;;5065608;28;20040;-67
2022/09/30 05:28:47;;;;;;;10.90;7.28;;;;;;;;;;5068183;28;20079;-67
2022/09/30 05:31:13;;;;;;;9.45;6.88;;;;;;;;;;5072091;28;20045;-67
2022/09/30 05:33:40;;;;;;;11.90;6.75;;;;;;;;;;5070421;28;20041;-67
2022/09/30 05:36:07;;;;;;;12.05;6.75;;;;;;;;;;5073943;28;20545;-66
2022/09/30 05:38:34;;;;;;;11.70;6.20;;;;;;;;;;5074224;28;20040;-67
2022/09/30 05:41:06;;;;;;;10.25;6.22;;;;;;;;;;5076681;28;20044;-66
2022/09/30 05:43:32;;;;;;;9.90;6.25;;;;;;;;;;5075997;28;20526;-67
2022/09/30 05:45:58;;;;;;;9.75;6.95;;;;;;;;;;5074907;28;20521;-66
2022/09/30 05:48:25;;;;;;;10.20;6.53;;;;;;;;;;5072756;28;20037;-67
2022/09/30 05:50:55;;;;;;;12.43;6.97;;;;;;;;;;5066455;28;20087;-67
2022/09/30 05:53:21;;;;;;;12.00;6.60;;;;;;;;;;5073147;28;20044;-66
2022/09/30 05:55:48;;;;;;;14.13;7.72;;;;;;;;;;5072612;28;20867;-66
2022/09/30 05:58:14;;;;;;;12.30;7.78;;;;;;;;;;5075201;28;20955;-66
2022/09/30 06:00:41;;;;;;;11.57;7.22;;;;;;;;;;5071611;28;20115;-67
2022/09/30 06:03:07;;;;;;;13.00;7.60;;;;;;;;;;5068234;28;20045;-67
2022/09/30 06:05:34;;;;;;;11.32;7.30;;;;;;;;;;5074203;28;20091;-66
2022/09/30 06:08:00;;;;;;;11.30;7.30;;;;;;;;;;5072295;28;20044;-66
2022/09/30 06:10:27;;;;;;;14.70;7.07;;;;;;;;;;5071238;28;20037;-67
2022/09/30 06:12:53;;;;;;;9.82;6.85;;;;;;;;;;5070305;28;20064;-66
2022/09/30 06:15:19;;;;;;;11.02;7.47;;;;;;;;;;5067823;28;20111;-66
2022/09/30 06:17:45;;;;;;;10.88;7.13;;;;;;;;;;5065817;28;20081;-66
2022/09/30 06:20:12;;;;;;;11.38;7.10;;;;;;;;;;5070174;28;20183;-66
2022/09/30 06:22:38;;;;;;;16.40;7.40;;;;;;;;;;5070150;28;20076;-67
2022/09/30 06:25:05;;;;;;;15.00;8.30;;;;;;;;;;5047443;28;20120;-67
2022/09/30 06:27:33;;;;;;;17.00;8.43;;;;;;;;;;5070527;28;20040;-66
2022/09/30 06:29:59;;;;;;;15.85;7.93;;;;;;;;;;5069226;28;20090;-66
2022/09/30 06:32:25;;;;;;;16.67;7.97;;;;;;;;;;5067033;28;20059;-66
2022/09/30 06:34:54;;;;;;;13.80;7.63;;;;;;;;;;5073092;28;20044;-66
2022/09/30 06:37:20;;;;;;;13.23;8.20;;;;;;;;;;5064231;28;20589;-65
2022/09/30 06:39:46;;;;;;;11.18;7.63;;;;;;;;;;5066224;28;20514;-66
2022/09/30 06:42:13;;;;;;;16.40;8.90;;;;;;;;;;5056488;28;20046;-67
2022/09/30 06:44:39;;;;;;;16.75;8.70;;;;;;;;;;5071162;28;20045;-68
2022/09/30 06:47:05;;;;;;;16.50;8.85;;;;;;;;;;5082667;28;20348;-66
2022/09/30 06:49:32;;;;;;;13.90;7.90;;;;;;;;;;5064701;28;20110;-67
2022/09/30 06:51:59;;;;;;;14.07;8.10;;;;;;;;;;5067567;28;20055;-67
2022/09/30 06:54:27;;;;;;;13.05;8.20;;;;;;;;;;5069010;28;20099;-67
2022/09/30 06:56:56;;;;;;;23.63;10.15;;;;;;;;;;5072802;28;20146;-66
2022/09/30 06:59:23;;;;;;;18.77;9.35;;;;;;;;;;5065172;28;20147;-67
2022/09/30 07:01:49;;;;;;;13.75;9.50;;;;;;;;;;5073620;28;20044;-67
2022/09/30 07:04:15;;;;;;;13.27;9.23;;;;;;;;;;5072984;28;20128;-66
2022/09/30 07:06:42;;;;;;;14.10;8.07;;;;;;;;;;5072873;28;20502;-67
2022/09/30 07:09:08;;;;;;;15.38;8.02;;;;;;;;;;5072652;28;20593;-67
2022/09/30 07:11:36;;;;;;;13.90;9.65;;;;;;;;;;5075011;28;21115;-68
2022/09/30 07:14:03;;;;;;;13.10;7.95;;;;;;;;;;5071257;28;20044;-72
2022/09/30 07:16:33;;;;;;;13.15;8.82;;;;;;;;;;5071566;28;20362;-75
2022/09/30 07:19:00;;;;;;;13.40;8.52;;;;;;;;;;5072156;28;20106;-67
2022/09/30 07:21:27;;;;;;;13.90;8.68;;;;;;;;;;5046022;28;20041;-67
2022/09/30 07:23:53;;;;;;;10.30;8.63;;;;;;;;;;5073828;28;20470;-68
2022/09/30 07:26:21;;;;;;;17.13;10.73;;;;;;;;;;5071243;28;20040;-67
2022/09/30 07:28:47;;;;;;;10.65;7.68;;;;;;;;;;5077838;28;20044;-67
2022/09/30 07:31:17;;;;;;;20.42;9.32;;;;;;;;;;5073467;28;21322;-67
2022/09/30 07:33:43;;;;;;;16.70;9.90;;;;;;;;;;5073481;28;20043;-67
2022/09/30 07:36:10;;;;;;;14.18;8.85;;;;;;;;;;5073512;28;20048;-68
2022/09/30 07:38:39;;;;;;;15.35;10.15;;;;;;;;;;5073714;28;20132;-67
2022/09/30 07:41:07;;;;;;;15.23;9.77;;;;;;;;;;5066734;28;20104;-67
2022/09/30 07:43:37;;;;;;;16.13;10.50;;;;;;;;;;5071323;28;20040;-68
2022/09/30 07:46:07;;;;;;;15.40;10.05;;;;;;;;;;5073835;28;20044;-67
2022/09/30 07:48:46;;;;;;;17.48;10.70;;;;;;;;;;5074294;28;20052;-68
2022/09/30 07:51:14;;;;;;;16.00;9.30;;;;;;;;;;5055630;28;20033;-67
2022/09/30 07:53:41;;;;;;;16.80;9.70;;;;;;;;;;5072915;28;20036;-68
2022/09/30 07:56:07;;;;;;;14.23;9.40;;;;;;;;;;5074223;28;20041;-67
2022/09/30 07:58:33;;;;;;;15.20;10.85;;;;;;;;;;5072786;28;20040;-67
2022/09/30 08:00:59;;;;;;;16.02;9.93;;;;;;;;;;5066573;28;20090;-68
2022/09/30 08:03:26;;;;;;;14.60;9.57;;;;;;;;;;5074830;28;20055;-67
2022/09/30 08:05:52;;;;;;;17.33;11.40;;;;;;;;;;5074780;28;20051;-67
2022/09/30 08:08:18;;;;;;;16.08;10.32;;;;;;;;;;5073996;28;20082;-67
2022/09/30 08:10:44;;;;;;;32.17;11.07;;;;;;;;;;5066728;28;20499;-67
2022/09/30 08:13:15;;;;;;;16.60;10.32;;;;;;;;;;5073698;28;20095;-68
2022/09/30 08:15:41;;;;;;;16.05;9.50;;;;;;;;;;5070458;28;20063;-67
2022/09/30 08:18:07;;;;;;;15.30;9.73;;;;;;;;;;5074038;28;20041;-70
2022/09/30 08:20:33;;;;;;;20.50;11.70;;;;;;;;;;5066137;28;20272;-67
2022/09/30 08:23:00;;;;;;;21.33;10.70;;;;;;;;;;5064334;28;20568;-73
2022/09/30 08:25:26;;;;;;;17.50;9.98;;;;;;;;;;5072038;28;20084;-67
2022/09/30 08:27:52;;;;;;;16.45;9.80;;;;;;;;;;5071602;28;20109;-67
2022/09/30 08:30:18;;;;;;;21.20;10.68;;;;;;;;;;5070045;28;20048;-68
2022/09/30 08:32:44;;;;;;;17.65;9.63;;;;;;;;;;5055961;28;20049;-67
2022/09/30 08:35:11;;;;;;;19.38;11.38;;;;;;;;;;5072835;28;20124;-67
2022/09/30 08:37:37;;;;;;;21.35;11.70;;;;;;;;;;5065024;28;20044;-68
2022/09/30 08:40:03;;;;;;;20.45;11.13;;;;;;;;;;5067266;28;20052;-68
2022/09/30 08:42:29;;;;;;;16.80;11.48;;;;;;;;;;5055729;28;20045;-68
2022/09/30 08:45:02;;;;;;;19.42;10.85;;;;;;;;;;5073640;28;20049;-67
2022/09/30 08:47:46;;;;;;;17.63;11.52;;;;;;;;;;5066092;28;20072;-67
2022/09/30 08:50:21;;;;;;;16.88;10.20;;;;;;;;;;5074457;28;20036;-68
2022/09/30 08:52:50;;;;;;;20.15;10.70;;;;;;;;;;5057184;28;20122;-67
2022/09/30 08:55:29;;;;;;;21.17;11.75;;;;;;;;;;5057616;28;20095;-68
2022/09/30 08:57:55;;;;;;;16.52;10.13;;;;;;;;;;5056220;28;20549;-68
2022/09/30 09:00:22;;;;;;;20.20;10.70;;;;;;;;;;5073327;28;20040;-67
2022/09/30 09:02:53;;;;;;;13.88;10.32;;;;;;;;;;5055022;28;20046;-67
2022/09/30 09:05:40;;;;;;;11.18;7.78;;;;;;;;;;5063990;28;20040;-67
2022/09/30 09:08:18;;;;;;;10.85;7.68;;;;;;;;;;5055834;28;20057;-67
2022/09/30 09:10:55;;;;;;;11.25;7.03;;;;;;;;;;5074869;28;20070;-68
2022/09/30 09:13:49;;;;;;;9.27;6.45;;;;;;;;;;5072644;28;20168;-68
2022/09/30 09:16:21;;;;;;;9.60;6.60;;;;;;;;;;5074446;28;20048;-68
2022/09/30 09:19:06;;;;;;;9.63;6.88;;;;;;;;;;5074382;28;20049;-68
2022/09/30 09:21:55;;;;;;;15.77;6.50;;;;;;;;;;5073362;28;20032;-68
2022/09/30 09:24:23;;;;;;;7.20;4.95;;;;;;;;;;5076626;28;20554;-68
2022/09/30 09:26:51;;;;;;;8.75;5.30;;;;;;;;;;5076774;28;20036;-68
2022/09/30 09:29:26;;;;;;;11.73;6.82;;;;;;;;;;5075285;28;20469;-68
2022/09/30 09:31:58;;;;;;;7.35;4.50;;;;;;;;;;5075424;28;20175;-68
2022/09/30 09:34:25;;;;;;;9.15;4.18;;;;;;;;;;5077494;28;20073;-68
2022/09/30 09:36:57;;;;;;;6.72;3.75;;;;;;;;;;5069889;28;20041;-67
2022/09/30 09:39:36;;;;;;;8.50;3.45;;;;;;;;;;5068733;28;20424;-68
2022/09/30 09:42:02;;;;;;;6.05;3.53;;;;;;;;;;5075474;28;20041;-68
2022/09/30 09:44:55;;;;;;;6.53;3.90;;;;;;;;;;5075988;28;20091;-67
2022/09/30 09:47:20;;;;;;;;;;;;;;;;;;5047139;28;20051;-67
2022/09/30 09:49:47;;;;;;;6.25;3.45;;;;;;;;;;5074142;28;20894;-68
2022/09/30 09:52:13;;;;;;;7.97;4.00;;;;;;;;;;5067022;28;20040;-68
2022/09/30 09:54:44;;;;;;;5.53;2.75;;;;;;;;;;5074598;28;20114;-68
2022/09/30 09:57:11;;;;;;;5.90;2.88;;;;;;;;;;5069497;28;21346;-69
2022/09/30 09:59:38;;;;;;;5.50;3.38;;;;;;;;;;5072204;28;20041;-71
2022/09/30 10:02:22;;;;;;;5.97;3.53;;;;;;;;;;5073964;28;20048;-68
2022/09/30 10:04:57;;;;;;;4.38;3.20;;;;;;;;;;5070692;28;20577;-68
2022/09/30 10:07:23;;;;;;;5.60;3.90;;;;;;;;;;5075702;28;20996;-68
2022/09/30 10:10:04;;;;;;;6.95;3.95;;;;;;;;;;5073190;28;20122;-68
2022/09/30 10:12:30;;;;;;;5.15;3.20;;;;;;;;;;5075860;28;20044;-68
2022/09/30 10:15:02;;;;;;;5.20;3.55;;;;;;;;;;5071890;28;20041;-69
2022/09/30 10:17:32;;;;;;;4.53;3.37;;;;;;;;;;5075642;28;20036;-68
2022/09/30 10:20:00;;;;;;;7.43;4.10;;;;;;;;;;5071415;28;20068;-68
2022/09/30 10:22:26;;;;;;;4.85;2.40;;;;;;;;;;5072116;28;20049;-68
2022/09/30 10:25:08;;;;;;;6.95;2.50;;;;;;;;;;5072732;28;20039;-68
2022/09/30 10:27:35;;;;;;;4.00;2.88;;;;;;;;;;5071695;28;20037;-69
2022/09/30 10:30:02;;;;;;;8.07;3.63;;;;;;;;;;5073998;28;20029;-69
2022/09/30 10:32:29;;;;;;;5.60;3.55;;;;;;;;;;5072633;28;20115;-68
2022/09/30 10:34:59;;;;;;;8.73;4.03;;;;;;;;;;5073632;28;20498;-70
2022/09/30 10:37:25;;;;;;;25.45;4.65;;;;;;;;;;5075848;28;20754;-69
2022/09/30 10:40:00;;;;;;;4.70;3.08;;;;;;;;;;5073788;28;20550;-68
2022/09/30 10:42:28;;;;;;;5.70;4.07;;;;;;;;;;5071985;28;20094;-69
2022/09/30 10:45:00;;;;;;;6.95;2.95;;;;;;;;;;5073135;28;20198;-68
2022/09/30 10:47:27;;;;;;;6.63;2.65;;;;;;;;;;5068284;28;20122;-68
2022/09/30 10:49:55;;;;;;;4.95;2.53;;;;;;;;;;5071023;28;20123;-69
2022/09/30 10:52:28;;;;;;;2.72;2.20;;;;;;;;;;5052565;28;20036;-68
2022/09/30 10:54:56;;;;;;;4.72;2.83;;;;;;;;;;5066951;28;20049;-69
2022/09/30 10:57:22;;;;;;;3.30;2.20;;;;;;;;;;5067767;28;20086;-68
2022/09/30 10:59:49;;;;;;;6.13;3.00;;;;;;;;;;5071406;28;20044;-69
2022/09/30 11:02:15;;;;;;;7.30;2.28;;;;;;;;;;5068755;28;20064;-69
2022/09/30 11:04:45;;;;;;;3.45;1.80;;;;;;;;;;5071823;28;20064;-68
2022/09/30 11:07:34;;;;;;;8.48;2.63;;;;;;;;;;5069039;28;20199;-69
2022/09/30 11:10:21;;;;;;;3.95;1.83;;;;;;;;;;5046893;28;20081;-68
2022/09/30 11:12:54;;;;;;;3.58;1.70;;;;;;;;;;5018305;28;20051;-69
2022/09/30 11:15:35;;;;;;;5.45;1.95;;;;;;;;;;5044937;28;20047;-68
2022/09/30 11:18:05;;;;;;;4.97;1.85;;;;;;;;;;5069708;28;20044;-69
2022/09/30 11:20:35;;;;;;;4.35;2.03;;;;;;;;;;5069551;28;20049;-69
2022/09/30 11:23:01;;;;;;;5.60;2.40;;;;;;;;;;5067201;28;20079;-69
2022/09/30 11:25:34;;;;;;;4.85;1.83;;;;;;;;;;5085605;28;20167;-68
2022/09/30 11:28:00;;;;;;;5.78;2.22;;;;;;;;;;5052886;28;20084;-69
2022/09/30 11:30:26;;;;;;;6.72;1.85;;;;;;;;;;5073111;28;20553;-68
2022/09/30 11:33:01;;;;;;;4.28;1.70;;;;;;;;;;5072991;28;20120;-69
2022/09/30 11:35:33;;;;;;;3.63;1.50;;;;;;;;;;5072143;28;20040;-69
2022/09/30 11:38:02;;;;;;;2.13;1.58;;;;;;;;;;5071372;28;20044;-68
2022/09/30 11:40:37;;;;;;;3.83;1.48;;;;;;;;;;5070551;28;20114;-68
2022/09/30 11:43:21;;;;;;;4.82;2.30;;;;;;;;;;5070867;28;20051;-68
2022/09/30 11:45:54;;;;;;;1.92;1.45;;;;;;;;;;5054863;28;20147;-68
2022/09/30 11:48:23;;;;;;;2.53;1.55;;;;;;;;;;5070295;28;20052;-69
2022/09/30 11:50:57;;;;;;;1.67;1.20;;;;;;;;;;5084598;28;20098;-69
2022/09/30 11:53:37;;;;;;;2.17;1.20;;;;;;;;;;5071787;28;20119;-68
2022/09/30 11:56:17;;;;;;;2.00;1.30;;;;;;;;;;5053757;28;20199;-68
2022/09/30 11:58:47;;;;;;;8.65;2.10;;;;;;;;;;5065062;28;20136;-68
2022/09/30 12:01:13;;;;;;;2.80;1.30;;;;;;;;;;5067512;28;20053;-68
2022/09/30 12:03:41;;;;;;;5.60;1.73;;;;;;;;;;5069032;28;20043;-68
2022/09/30 12:06:15;;;;;;;4.55;1.98;;;;;;;;;;5068497;28;20037;-68
2022/09/30 12:08:41;;;;;;;2.35;1.33;;;;;;;;;;5085507;28;20503;-68
2022/09/30 12:11:13;;;;;;;1.90;1.25;;;;;;;;;;5069943;28;20051;-68
2022/09/30 12:13:43;;;;;;;3.15;1.45;;;;;;;;;;5073596;28;20072;-68
2022/09/30 12:16:14;;;;;;;1.38;1.15;;;;;;;;;;5070230;28;20191;-68
2022/09/30 12:18:42;;;;;;;2.67;1.50;;;;;;;;;;5068133;28;20576;-68
2022/09/30 12:21:11;;;;;;;5.53;1.42;;;;;;;;;;5062901;28;20036;-68
2022/09/30 12:24:02;;;;;;;2.35;1.40;;;;;;;;;;5067659;28;20063;-68
2022/09/30 12:26:29;;;;;;;2.22;1.20;;;;;;;;;;5065525;28;20041;-68
2022/09/30 12:31:50;;;;;;;4.18;1.70;;;;;;;;;;5063551;28;20048;-69
2022/09/30 12:34:30;;;;;;;3.75;2.20;;;;;;;;;;5061830;28;20151;-68
2022/09/30 12:36:56;;;;;;;2.38;1.17;;;;;;;;;;5066390;28;20040;-68
2022/09/30 12:39:40;;;;;;;2.40;1.10;;;;;;;;;;5072668;28;21267;-69
2022/09/30 12:42:06;;;;;;;1.77;1.20;;;;;;;;;;5065929;28;20049;-67
2022/09/30 12:44:51;;;;;;;2.67;1.45;;;;;;;;;;5060683;28;20032;-69
2022/09/30 12:47:29;;;;;;;4.47;1.55;;;;;;;;;;5066232;28;20067;-68
2022/09/30 12:49:56;;;;;;;0.90;0.85;;;;;;;;;;5067765;28;20040;-67
2022/09/30 12:52:23;;;;;;;2.80;1.20;;;;;;;;;;5066948;28;20611;-68
2022/09/30 12:54:52;;;;;;;2.55;1.67;;;;;;;;;;5060711;28;20139;-67
2022/09/30 12:57:30;;;;;;;2.00;1.08;;;;;;;;;;5070526;28;20068;-68
2022/09/30 13:00:00;;;;;;;2.33;1.83;;;;;;;;;;5070966;28;20029;-68
2022/09/30 13:02:30;;;;;;;1.77;1.42;;;;;;;;;;5064853;28;20597;-68
2022/09/30 13:05:17;;;;;;;1.60;1.00;;;;;;;;;;5068509;28;20037;-68
2022/09/30 13:08:03;;;;;;;1.92;0.93;;;;;;;;;;5066750;28;21171;-68
2022/09/30 13:10:29;;;;;;;1.63;0.93;;;;;;;;;;5049967;28;20128;-68
2022/09/30 13:13:11;;;;;;;1.60;1.02;;;;;;;;;;5066682;28;20051;-69
2022/09/30 13:15:37;;;;;;;3.73;2.33;;;;;;;;;;5068432;28;20044;-68
2022/09/30 13:18:32;;;;;;;2.83;1.20;;;;;;;;;;5068552;28;20087;-68
2022/09/30 13:21:04;;;;;;;2.20;1.13;;;;;;;;;;5048033;28;21627;-68
2022/09/30 13:23:39;;;;;;;2.65;1.35;;;;;;;;;;5066890;28;20053;-68
2022/09/30 13:26:24;;;;;;;1.77;1.25;;;;;;;;;;5069583;28;20040;-68
2022/09/30 13:28:51;;;;;;;3.80;0.98;;;;;;;;;;5070038;28;20478;-68
2022/09/30 13:31:19;;;;;;;2.00;1.17;;;;;;;;;;5071677;28;20580;-67
2022/09/30 13:33:46;;;;;;;2.10;1.42;;;;;;;;;;5065921;28;20503;-67
2022/09/30 13:36:17;;;;;;;13.02;2.70;;;;;;;;;;5068560;28;20049;-69
2022/09/30 13:38:43;;;;;;;10.05;2.08;;;;;;;;;;5063252;28;20116;-68
2022/09/30 13:41:18;;;;;;;4.07;1.88;;;;;;;;;;5065363;28;20483;-68
2022/09/30 13:43:45;;;;;;;2.85;1.10;;;;;;;;;;5070376;28;20041;-67
2022/09/30 13:46:22;;;;;;;3.42;1.10;;;;;;;;;;5069347;28;20036;-76
2022/09/30 13:48:51;;;;;;;1.38;1.00;;;;;;;;;;5065424;28;20036;-68
2022/09/30 13:51:19;;;;;;;1.80;1.10;;;;;;;;;;5065160;28;20041;-71
2022/09/30 13:53:58;;;;;;;2.40;1.25;;;;;;;;;;5065525;28;20234;-68
2022/09/30 13:56:26;;;;;;;2.85;1.40;;;;;;;;;;5072964;28;20040;-68
2022/09/30 13:59:08;;;;;;;3.63;1.40;;;;;;;;;;5062365;28;20041;-68
2022/09/30 14:01:41;;;;;;;2.88;1.40;;;;;;;;;;5074574;28;20561;-68
2022/09/30 14:04:17;;;;;;;2.15;1.42;;;;;;;;;;5068773;28;20044;-68
2022/09/30 14:06:45;;;;;;;2.17;1.40;;;;;;;;;;5066752;28;20044;-68
2022/09/30 14:09:23;;;;;;;2.28;1.50;;;;;;;;;;5071213;28;20117;-68
2022/09/30 14:11:52;;;;;;;2.58;1.52;;;;;;;;;;5067487;28;20041;-67
2022/09/30 14:14:37;;;;;;;3.22;1.13;;;;;;;;;;5068361;28;20135;-68
2022/09/30 14:17:07;;;;;;;3.05;1.38;;;;;;;;;;5069221;28;20040;-68
2022/09/30 14:19:36;;;;;;;5.65;2.17;;;;;;;;;;5069448;28;20037;-68
2022/09/30 14:22:04;;;;;;;2.15;1.33;;;;;;;;;;5069823;28;20584;-68
2022/09/30 14:24:32;;;;;;;2.60;1.50;;;;;;;;;;5071509;28;20104;-69
2022/09/30 14:27:07;;;;;;;3.88;1.52;;;;;;;;;;5069191;28;20631;-68
2022/09/30 14:29:52;;;;;;;3.97;1.58;;;;;;;;;;5071246;28;20043;-68
2022/09/30 14:32:33;;;;;;;3.80;1.40;;;;;;;;;;5071033;28;20032;-68
2022/09/30 14:34:59;;;;;;;4.10;1.58;;;;;;;;;;5070876;28;20041;-68
2022/09/30 14:37:30;;;;;;;3.95;1.48;;;;;;;;;;5066839;28;20052;-68
2022/09/30 14:39:56;;;;;;;2.42;1.67;;;;;;;;;;5068364;28;20530;-67
2022/09/30 14:42:29;;;;;;;4.05;1.83;;;;;;;;;;5085622;28;20051;-69
2022/09/30 14:45:01;;;;;;;3.28;1.38;;;;;;;;;;5046085;28;20056;-69
2022/09/30 14:47:27;;;;;;;2.75;1.58;;;;;;;;;;5068664;28;20048;-68
2022/09/30 14:49:53;;;;;;;2.97;1.33;;;;;;;;;;5065979;28;20129;-68
2022/09/30 14:52:36;;;;;;;4.43;2.03;;;;;;;;;;5072707;28;20052;-68
2022/09/30 14:55:03;;;;;;;2.70;1.48;;;;;;;;;;5069313;28;20052;-68
2022/09/30 14:57:32;;;;;;;2.63;1.13;;;;;;;;;;5070428;28;20556;-78
2022/09/30 15:00:17;;;;;;;2.50;1.27;;;;;;;;;;5069044;28;20954;-68